Terminal Aerodrome Forecast
Issued by NWS Wilmington, OH

Home | Current Version | Previous Version | Text Only | Print | Product List | Glossary On
Versions: 1 2 3 4 5 6 7 8 9 10 11 12 13 14 15 16 17 18 19 20 21 22 23 24 25
440
FTUS41 KILN 202340
TAFILN
TAF
KILN 202340Z 2100/2124 23005KT P6SM BKN035 BKN200
     FM210200 16005KT P6SM BKN025
      TEMPO 2109/2113 5SM BR OVC012
     FM211400 19008KT P6SM BKN025
     FM211600 19009KT P6SM SCT030 BKN250=

USA.gov is the U.S. government's official web portal to all federal, state and local government web resources and services.